createdAt,value
2019-05-10T00:01:22.109Z,99.30
2019-05-10T00:04:09.427Z,99.20
2019-05-10T00:06:56.830Z,99.50
2019-05-10T00:09:25.518Z,99.50
2019-05-10T00:11:56.640Z,99.50
2019-05-10T00:14:45.515Z,99.50
2019-05-10T00:17:16.756Z,99.40
2019-05-10T00:19:46.352Z,99.40
2019-05-10T00:22:15.892Z,99.40
2019-05-10T00:25:00.822Z,99.50
2019-05-10T00:27:16.685Z,99.40
2019-05-10T00:29:46.286Z,99.30
2019-05-10T00:32:15.751Z,99.30
2019-05-10T00:34:45.306Z,99.30
2019-05-10T00:37:14.835Z,99.20
2019-05-10T00:39:44.325Z,99.20
2019-05-10T00:42:13.784Z,99.10
2019-05-10T00:44:43.256Z,99.10
2019-05-10T00:47:12.701Z,99.10
2019-05-10T00:49:42.179Z,99.00
2019-05-10T00:52:11.712Z,98.90
2019-05-10T00:54:40.988Z,98.90
2019-05-10T00:57:10.471Z,98.90
2019-05-10T00:59:39.983Z,98.80
2019-05-10T01:02:09.477Z,98.80
2019-05-10T01:04:39.129Z,98.70
2019-05-10T01:07:08.657Z,98.60
2019-05-10T01:09:38.139Z,98.60
2019-05-10T01:12:07.647Z,98.90
2019-05-10T01:14:37.119Z,98.50
2019-05-10T01:17:06.585Z,98.60
2019-05-10T01:19:36.122Z,98.40
2019-05-10T01:22:05.676Z,98.40
2019-05-10T01:24:35.110Z,98.40
2019-05-10T01:27:04.745Z,98.40
2019-05-10T01:29:34.249Z,98.40
2019-05-10T01:32:03.733Z,98.50
2019-05-10T01:34:33.207Z,98.50
2019-05-10T01:37:02.693Z,98.50
2019-05-10T01:39:32.163Z,98.50
2019-05-10T01:42:01.647Z,98.50
2019-05-10T01:44:31.152Z,98.50
2019-05-10T01:47:00.768Z,98.50
2019-05-10T01:49:30.046Z,98.60
2019-05-10T01:52:01.102Z,98.60
2019-05-10T01:54:30.656Z,98.60
2019-05-10T01:57:00.235Z,98.60
2019-05-10T01:59:29.747Z,98.50
2019-05-10T02:01:59.263Z,98.50
2019-05-10T02:04:28.700Z,98.40
2019-05-10T02:06:58.161Z,98.40
2019-05-10T02:09:27.656Z,98.40
2019-05-10T02:11:57.140Z,98.40
2019-05-10T02:14:26.636Z,98.40
2019-05-10T02:16:56.111Z,98.50
2019-05-10T02:19:25.588Z,98.50
2019-05-10T02:21:55.065Z,98.80
2019-05-10T02:24:24.544Z,98.80
2019-05-10T02:26:54.118Z,99.00
2019-05-10T02:29:23.633Z,99.40
2019-05-10T02:31:53.128Z,99.90
2019-05-10T02:34:22.611Z,99.50
2019-05-10T02:36:52.101Z,99.80
2019-05-10T02:39:21.576Z,99.90
2019-05-10T02:41:51.030Z,99.90
2019-05-10T02:44:20.343Z,99.90
2019-05-10T02:46:49.797Z,99.90
2019-05-10T02:49:19.279Z,99.90
2019-05-10T02:51:48.772Z,99.90
2019-05-10T02:54:18.865Z,99.90
2019-05-10T02:56:49.031Z,99.90
2019-05-10T02:59:19.383Z,99.90
2019-05-10T03:01:48.964Z,99.90
2019-05-10T03:04:19.931Z,99.90
2019-05-10T03:06:54.078Z,99.90
2019-05-10T03:09:28.138Z,99.90
2019-05-10T03:12:02.217Z,99.90
2019-05-10T03:14:36.259Z,99.90
2019-05-10T03:17:07.619Z,99.90
2019-05-10T03:19:37.859Z,99.90
2019-05-10T03:22:07.810Z,99.90
2019-05-10T03:24:37.285Z,99.90
2019-05-10T03:27:06.801Z,99.90
2019-05-10T03:29:36.275Z,99.90
2019-05-10T03:32:05.819Z,99.90
2019-05-10T03:34:35.389Z,99.90
2019-05-10T03:37:05.127Z,99.90
2019-05-10T03:39:34.589Z,99.90
2019-05-10T03:42:04.436Z,99.90
2019-05-10T03:44:33.882Z,99.90
2019-05-10T03:47:03.446Z,99.90
2019-05-10T03:49:32.912Z,99.90
2019-05-10T03:52:02.399Z,99.90
2019-05-10T03:54:31.882Z,99.90
2019-05-10T03:57:12.923Z,99.90
2019-05-10T03:59:32.538Z,99.90
2019-05-10T04:02:02.054Z,99.90
2019-05-10T04:04:31.646Z,99.90
2019-05-10T04:07:01.337Z,99.90
2019-05-10T04:09:30.924Z,99.90
2019-05-10T04:12:00.487Z,99.90
2019-05-10T04:14:29.995Z,99.90
2019-05-10T04:16:59.486Z,99.90
2019-05-10T04:19:29.023Z,99.90
2019-05-10T04:21:58.489Z,99.90
2019-05-10T04:24:27.949Z,99.90
2019-05-10T04:26:57.429Z,99.90
2019-05-10T04:29:26.922Z,99.90
2019-05-10T04:31:56.434Z,99.90
2019-05-10T04:34:25.973Z,99.90
2019-05-10T04:36:55.434Z,99.90
2019-05-10T04:39:24.914Z,99.90
2019-05-10T04:41:54.412Z,99.90
2019-05-10T04:44:23.894Z,99.90
2019-05-10T04:46:53.397Z,99.90
2019-05-10T04:49:22.995Z,99.90
2019-05-10T04:51:52.524Z,99.90
2019-05-10T04:54:22.027Z,99.90
2019-05-10T04:56:51.537Z,99.90
2019-05-10T04:59:21.038Z,99.90
2019-05-10T05:01:50.514Z,99.90
2019-05-10T05:04:20.023Z,99.90
2019-05-10T05:06:49.602Z,99.90
2019-05-10T05:09:19.090Z,99.90
2019-05-10T05:11:48.587Z,99.90
2019-05-10T05:14:18.057Z,99.90
2019-05-10T05:16:47.921Z,99.90
2019-05-10T05:19:17.493Z,99.90
2019-05-10T05:21:46.985Z,99.90
2019-05-10T05:24:16.863Z,99.90
2019-05-10T05:26:47.750Z,99.90
2019-05-10T05:29:17.230Z,99.90
2019-05-10T05:31:46.728Z,99.90
2019-05-10T05:34:16.240Z,99.90
2019-05-10T05:36:45.798Z,99.90
2019-05-10T05:39:15.282Z,99.90
2019-05-10T05:41:51.456Z,99.90
2019-05-10T05:44:20.319Z,99.90
2019-05-10T05:46:47.999Z,99.90
2019-05-10T05:49:17.486Z,99.90
2019-05-10T05:51:46.923Z,99.90
2019-05-10T05:54:20.647Z,99.90
2019-05-10T05:56:52.815Z,99.90
2019-05-10T05:59:24.038Z,99.90
2019-05-10T06:01:53.386Z,99.90
2019-05-10T06:04:22.906Z,99.90
2019-05-10T06:06:53.739Z,99.90
2019-05-10T06:09:23.570Z,99.90
2019-05-10T06:11:53.073Z,99.90
2019-05-10T06:14:22.606Z,99.90
2019-05-10T06:16:54.453Z,99.90
2019-05-10T06:19:29.392Z,99.90
2019-05-10T06:21:58.222Z,99.90
2019-05-10T06:24:26.252Z,99.90
2019-05-10T06:26:58.332Z,99.90
2019-05-10T06:29:26.923Z,99.90
2019-05-10T06:31:58.843Z,99.90
2019-05-10T06:34:31.902Z,99.90
2019-05-10T06:36:58.899Z,99.90
2019-05-10T06:39:28.459Z,99.90
2019-05-10T06:41:58.388Z,99.90
2019-05-10T06:44:31.247Z,99.90
2019-05-10T06:47:02.040Z,99.90
2019-05-10T06:49:30.571Z,99.80
2019-05-10T06:52:00.025Z,99.00
2019-05-10T06:54:29.533Z,98.20
2019-05-10T06:56:59.049Z,98.00
2019-05-10T06:59:28.531Z,97.90
2019-05-10T07:01:58.019Z,97.90
2019-05-10T07:04:27.549Z,97.80
2019-05-10T07:06:57.046Z,97.90
2019-05-10T07:09:26.619Z,98.10
2019-05-10T07:11:56.078Z,98.00
2019-05-10T07:14:27.293Z,97.90
2019-05-10T07:17:02.621Z,98.00
2019-05-10T07:19:28.959Z,97.80
2019-05-10T07:21:58.848Z,98.60
2019-05-10T07:24:28.415Z,98.50
2019-05-10T07:27:02.050Z,98.30
2019-05-10T07:29:30.480Z,97.30
2019-05-10T07:32:00.346Z,96.80
2019-05-10T07:34:29.823Z,96.30
2019-05-10T07:37:01.802Z,96.10
2019-05-10T07:39:30.573Z,96.10
2019-05-10T07:42:05.895Z,96.00
2019-05-10T07:44:31.307Z,95.50
2019-05-10T07:47:00.766Z,95.60
2019-05-10T07:49:32.480Z,95.70
2019-05-10T07:52:03.071Z,95.70
2019-05-10T07:54:37.509Z,95.70
2019-05-10T07:57:03.927Z,95.30
2019-05-10T07:59:49.634Z,96.00
2019-05-10T08:02:06.064Z,95.50
2019-05-10T08:04:35.822Z,95.20
2019-05-10T08:07:07.450Z,93.60
2019-05-10T08:09:41.077Z,93.30
2019-05-10T08:12:12.568Z,92.30
2019-05-10T08:14:39.510Z,92.10
2019-05-10T08:17:10.319Z,91.70
2019-05-10T08:19:39.891Z,91.50
2019-05-10T08:22:09.509Z,91.80
2019-05-10T08:24:44.549Z,91.90
2019-05-10T08:27:12.386Z,91.50
2019-05-10T08:29:42.894Z,91.30
2019-05-10T08:32:12.927Z,91.80
2019-05-10T08:34:51.856Z,92.00
2019-05-10T08:37:19.342Z,91.60
2019-05-10T08:39:49.033Z,91.60
2019-05-10T08:42:34.255Z,91.80
2019-05-10T08:44:53.652Z,91.90
2019-05-10T08:47:25.119Z,91.50
2019-05-10T08:50:00.122Z,91.70
2019-05-10T08:52:26.863Z,91.60
2019-05-10T08:54:55.037Z,90.70
2019-05-10T08:57:23.640Z,90.30
2019-05-10T08:59:54.489Z,90.60
2019-05-10T09:02:29.313Z,90.30
2019-05-10T09:04:55.597Z,89.50
2019-05-10T09:07:29.328Z,89.70
2019-05-10T09:09:56.272Z,90.20
2019-05-10T09:12:25.787Z,90.30
2019-05-10T09:15:05.726Z,90.10
2019-05-10T09:17:28.295Z,90.10
2019-05-10T09:19:57.760Z,90.10
2019-05-10T09:22:34.119Z,90.20
2019-05-10T09:24:58.549Z,90.30
2019-05-10T09:27:29.424Z,90.90
2019-05-10T09:29:59.267Z,90.60
2019-05-10T09:32:30.479Z,90.40
2019-05-10T09:35:07.885Z,90.40
2019-05-10T09:37:32.057Z,88.00
2019-05-10T09:40:09.390Z,88.80
2019-05-10T09:42:39.776Z,88.80
2019-05-10T09:45:09.520Z,87.90
2019-05-10T09:47:37.321Z,88.90
2019-05-10T09:50:07.110Z,89.10
2019-05-10T09:52:36.576Z,90.00
2019-05-10T09:55:12.398Z,90.00
2019-05-10T09:57:38.602Z,90.30
2019-05-10T10:00:08.957Z,90.40
2019-05-10T10:02:40.484Z,90.20
2019-05-10T10:05:10.319Z,89.90
2019-05-10T10:07:39.886Z,88.90
2019-05-10T10:10:12.943Z,88.80
2019-05-10T10:12:41.230Z,87.00
2019-05-10T10:15:18.735Z,87.90
2019-05-10T10:17:42.665Z,88.40
2019-05-10T10:20:12.335Z,89.50
2019-05-10T10:22:43.298Z,90.10
2019-05-10T10:25:13.220Z,89.30
2019-05-10T10:27:42.661Z,88.50
2019-05-10T10:30:17.839Z,89.20
2019-05-10T10:32:44.589Z,88.70
2019-05-10T10:35:20.989Z,88.80
2019-05-10T10:37:47.585Z,89.30
2019-05-10T10:40:18.316Z,89.00
2019-05-10T10:42:47.976Z,89.30
2019-05-10T10:45:17.707Z,90.90
2019-05-10T10:47:47.319Z,91.90
2019-05-10T10:50:17.309Z,92.80
2019-05-10T10:52:46.861Z,93.30
2019-05-10T10:55:18.641Z,93.80
2019-05-10T10:57:48.455Z,94.10
2019-05-10T11:00:23.524Z,94.50
2019-05-10T11:02:53.741Z,94.70
2019-05-10T11:05:23.677Z,95.10
2019-05-10T11:07:53.133Z,95.20
2019-05-10T11:10:31.215Z,95.40
2019-05-10T11:13:05.798Z,95.60
2019-05-10T11:15:35.829Z,96.00
2019-05-10T11:18:03.957Z,96.30
2019-05-10T11:20:33.589Z,96.40
2019-05-10T11:23:03.197Z,96.40
2019-05-10T11:25:32.773Z,96.60
2019-05-10T11:28:02.319Z,96.50
2019-05-10T11:30:32.487Z,96.80
2019-05-10T11:33:02.437Z,96.80
2019-05-10T11:35:34.452Z,96.60
2019-05-10T11:38:06.632Z,96.50
2019-05-10T11:40:35.197Z,96.50
2019-05-10T11:43:04.951Z,96.50
2019-05-10T11:45:36.670Z,96.50
2019-05-10T11:48:05.936Z,96.20
2019-05-10T11:50:35.822Z,96.60
2019-05-10T11:53:07.050Z,96.30
2019-05-10T11:55:40.112Z,95.80
2019-05-10T11:59:03.772Z,95.50
2019-05-10T12:00:41.318Z,95.10
2019-05-10T12:03:15.055Z,93.90
2019-05-10T12:05:42.609Z,93.40
2019-05-10T12:08:13.139Z,93.20
2019-05-10T12:10:52.885Z,92.60
2019-05-10T12:13:19.361Z,92.30
2019-05-10T12:15:45.326Z,92.00
2019-05-10T12:18:15.183Z,91.60
2019-05-10T12:20:55.676Z,89.80
2019-05-10T12:23:22.798Z,90.10
2019-05-10T12:26:27.034Z,89.30
2019-05-10T12:28:24.006Z,89.00
2019-05-10T12:30:51.120Z,84.90
2019-05-10T12:33:24.867Z,85.60
2019-05-10T12:35:51.996Z,86.20
2019-05-10T12:38:23.463Z,85.60
2019-05-10T12:40:52.686Z,86.10
2019-05-10T12:43:22.126Z,86.90
2019-05-10T12:45:51.963Z,86.00
2019-05-10T12:48:23.572Z,85.70
2019-05-10T12:50:58.067Z,84.00
2019-05-10T12:53:24.101Z,84.60
2019-05-10T12:55:53.665Z,85.50
2019-05-10T12:58:23.176Z,86.50
2019-05-10T13:00:54.285Z,87.20
2019-05-10T13:03:31.114Z,88.20
2019-05-10T13:05:55.206Z,89.20
2019-05-10T13:08:24.697Z,90.40
2019-05-10T13:10:54.170Z,91.00
2019-05-10T13:13:29.270Z,91.20
2019-05-10T13:15:54.873Z,90.90
2019-05-10T13:18:48.202Z,91.00
2019-05-10T13:20:55.646Z,90.10
2019-05-10T13:23:25.106Z,90.20
2019-05-10T13:25:54.661Z,87.40
2019-05-10T13:28:24.214Z,83.40
2019-05-10T13:30:53.669Z,81.90
2019-05-10T13:33:28.940Z,81.20
2019-05-10T13:35:56.551Z,80.70
2019-05-10T13:38:25.369Z,81.40
2019-05-10T13:40:54.933Z,79.70
2019-05-10T13:43:27.098Z,81.00
2019-05-10T13:45:56.037Z,80.40
2019-05-10T13:48:26.551Z,80.10
2019-05-10T13:50:56.339Z,80.60
2019-05-10T13:53:25.818Z,82.20
2019-05-10T13:55:55.141Z,83.80
2019-05-10T13:58:24.648Z,83.20
2019-05-10T14:00:54.151Z,83.40
2019-05-10T14:03:23.599Z,82.70
2019-05-10T14:05:53.086Z,82.90
2019-05-10T14:08:22.564Z,83.90
2019-05-10T14:10:55.974Z,83.40
2019-05-10T14:13:23.279Z,82.10
2019-05-10T14:15:52.742Z,83.10
2019-05-10T14:18:22.252Z,82.40
2019-05-10T14:20:51.734Z,82.00
2019-05-10T14:23:21.200Z,81.90
2019-05-10T14:25:50.681Z,80.30
2019-05-10T14:28:20.224Z,81.20
2019-05-10T14:30:56.968Z,80.80
2019-05-10T14:33:21.163Z,80.70
2019-05-10T14:35:55.028Z,80.20
2019-05-10T14:38:22.995Z,80.30
2019-05-10T14:40:52.788Z,81.20
2019-05-10T14:43:22.313Z,82.50
2019-05-10T14:45:51.937Z,83.10
2019-05-10T14:48:27.710Z,83.90
2019-05-10T14:50:52.628Z,84.10
2019-05-10T14:53:25.808Z,85.00
2019-05-10T14:55:53.329Z,84.70
2019-05-10T14:58:22.921Z,84.60
2019-05-10T15:00:53.924Z,85.70
2019-05-10T15:03:23.501Z,89.40
2019-05-10T15:05:55.362Z,90.60
2019-05-10T15:08:24.386Z,92.20
2019-05-10T15:10:57.031Z,92.70
2019-05-10T15:13:27.988Z,93.60
2019-05-10T15:15:56.364Z,93.90
2019-05-10T15:18:25.842Z,94.40
2019-05-10T15:20:55.369Z,95.40
2019-05-10T15:23:24.872Z,95.60
2019-05-10T15:25:57.614Z,96.80
2019-05-10T15:28:25.655Z,96.50
2019-05-10T15:30:55.143Z,97.00
2019-05-10T15:33:24.675Z,96.90
2019-05-10T15:35:54.207Z,97.10
2019-05-10T15:38:23.715Z,97.20
2019-05-10T15:40:53.201Z,97.30
2019-05-10T15:43:22.881Z,97.30
2019-05-10T15:45:54.779Z,97.00
2019-05-10T15:48:23.637Z,96.80
2019-05-10T15:50:53.086Z,96.90
2019-05-10T15:53:25.433Z,96.90
2019-05-10T15:55:58.869Z,96.70
2019-05-10T15:58:25.169Z,96.70
2019-05-10T16:00:54.615Z,96.70
2019-05-10T16:03:24.100Z,96.90
2019-05-10T16:06:00.681Z,96.60
2019-05-10T16:08:30.421Z,96.80
2019-05-10T16:10:56.106Z,96.70
2019-05-10T16:13:25.594Z,97.10
2019-05-10T16:15:57.827Z,97.50
2019-05-10T16:18:26.394Z,97.50
2019-05-10T16:20:55.879Z,97.60
2019-05-10T16:23:25.543Z,96.80
2019-05-10T16:25:55.187Z,96.70
2019-05-10T16:28:24.662Z,96.50
2019-05-10T16:30:54.164Z,95.90
2019-05-10T16:33:23.690Z,94.80
2019-05-10T16:35:53.262Z,94.60
2019-05-10T16:38:22.897Z,93.90
2019-05-10T16:40:58.549Z,94.00
2019-05-10T16:43:24.753Z,94.20
2019-05-10T16:45:54.531Z,93.90
2019-05-10T16:48:24.009Z,93.60
2019-05-10T16:50:53.490Z,93.70
2019-05-10T16:53:22.984Z,93.20
2019-05-10T16:55:52.468Z,93.10
2019-05-10T16:58:22.491Z,93.20
2019-05-10T17:00:52.038Z,92.60
2019-05-10T17:03:21.702Z,92.40
2019-05-10T17:05:53.823Z,92.80
2019-05-10T17:08:22.589Z,92.70
2019-05-10T17:10:52.084Z,92.80
2019-05-10T17:13:21.611Z,92.80
2019-05-10T17:15:51.163Z,92.90
2019-05-10T17:18:23.878Z,92.90
2019-05-10T17:20:52.526Z,92.60
2019-05-10T17:23:23.636Z,92.70
2019-05-10T17:25:53.087Z,92.80
2019-05-10T17:28:22.658Z,92.70
2019-05-10T17:30:52.169Z,92.60
2019-05-10T17:33:23.543Z,92.60
2019-05-10T17:36:07.218Z,92.60
2019-05-10T17:38:24.338Z,92.70
2019-05-10T17:40:53.826Z,92.80
2019-05-10T17:43:23.287Z,93.00
2019-05-10T17:45:52.827Z,93.20
2019-05-10T17:48:22.397Z,93.50
2019-05-10T17:50:51.993Z,93.70
2019-05-10T17:53:21.570Z,93.80
2019-05-10T17:55:56.453Z,94.00
2019-05-10T17:58:22.312Z,94.10
2019-05-10T18:00:51.619Z,94.20
2019-05-10T18:03:21.089Z,94.20
2019-05-10T18:05:53.324Z,94.20
2019-05-10T18:08:21.804Z,94.30
2019-05-10T18:10:51.282Z,94.20
2019-05-10T18:13:20.747Z,94.20
2019-05-10T18:15:50.264Z,94.20
2019-05-10T18:18:19.789Z,94.10
2019-05-10T18:20:49.207Z,94.10
2019-05-10T18:23:21.034Z,94.20
2019-05-10T18:25:52.582Z,94.10
2019-05-10T18:28:21.764Z,94.20
2019-05-10T18:30:51.693Z,94.20
2019-05-10T18:33:21.206Z,94.30
2019-05-10T18:35:52.917Z,94.30
2019-05-10T18:38:21.885Z,94.20
2019-05-10T18:40:51.496Z,94.20
2019-05-10T18:43:20.987Z,94.20
2019-05-10T18:45:50.478Z,94.30
2019-05-10T18:48:19.985Z,94.40
2019-05-10T18:50:49.439Z,94.40
2019-05-10T18:53:18.903Z,94.50
2019-05-10T18:55:48.425Z,94.50
2019-05-10T18:58:23.301Z,94.70
2019-05-10T19:00:49.160Z,94.70
2019-05-10T19:03:18.684Z,94.80
2019-05-10T19:05:48.268Z,94.90
2019-05-10T19:08:17.830Z,95.00
2019-05-10T19:10:47.329Z,95.10
2019-05-10T19:13:17.230Z,95.20
2019-05-10T19:15:52.889Z,95.30
2019-05-10T19:18:23.251Z,95.40
2019-05-10T19:20:53.346Z,95.50
2019-05-10T19:23:21.587Z,95.50
2019-05-10T19:25:53.615Z,95.60
2019-05-10T19:28:26.946Z,95.60
2019-05-10T19:30:58.607Z,95.70
2019-05-10T19:33:29.850Z,95.70
2019-05-10T19:35:56.076Z,95.70
2019-05-10T19:38:25.593Z,95.80
2019-05-10T19:40:55.166Z,95.90
2019-05-10T19:43:24.580Z,95.90
2019-05-10T19:45:57.680Z,96.00
2019-05-10T19:48:29.382Z,96.00
2019-05-10T19:50:56.610Z,96.10
2019-05-10T19:53:26.140Z,96.20
2019-05-10T19:55:57.234Z,96.30
2019-05-10T19:58:32.257Z,96.50
2019-05-10T20:00:58.366Z,96.50
2019-05-10T20:03:27.791Z,96.60
2019-05-10T20:05:57.331Z,96.60
2019-05-10T20:08:26.810Z,96.60
2019-05-10T20:10:56.312Z,96.60
2019-05-10T20:13:26.242Z,96.60
2019-05-10T20:15:55.738Z,96.70
2019-05-10T20:18:25.227Z,96.70
2019-05-10T20:20:54.786Z,96.80
2019-05-10T20:23:24.271Z,96.80
2019-05-10T20:25:53.774Z,96.90
2019-05-10T20:28:23.280Z,97.00
2019-05-10T20:30:52.726Z,97.00
2019-05-10T20:33:22.205Z,97.00
2019-05-10T20:35:51.705Z,97.10
2019-05-10T20:38:21.225Z,97.10
2019-05-10T20:40:50.750Z,97.10
2019-05-10T20:43:20.222Z,97.10
2019-05-10T20:45:49.738Z,97.10
2019-05-10T20:48:19.652Z,97.10
2019-05-10T20:50:49.120Z,97.10
2019-05-10T20:53:18.630Z,97.10
2019-05-10T20:55:48.075Z,97.10
2019-05-10T20:58:17.599Z,97.10
2019-05-10T21:00:47.098Z,97.10
2019-05-10T21:03:16.569Z,97.20
2019-05-10T21:05:46.069Z,97.20
2019-05-10T21:08:17.226Z,97.30
2019-05-10T21:10:46.735Z,97.30
2019-05-10T21:13:16.181Z,97.20
2019-05-10T21:15:45.713Z,97.20
2019-05-10T21:18:15.195Z,97.20
2019-05-10T21:20:44.681Z,97.40
2019-05-10T21:23:14.232Z,97.40
2019-05-10T21:25:43.761Z,97.40
2019-05-10T21:28:13.286Z,97.50
2019-05-10T21:30:42.743Z,97.90
2019-05-10T21:33:12.225Z,97.60
2019-05-10T21:35:41.768Z,97.60
2019-05-10T21:38:11.262Z,97.70
2019-05-10T21:40:40.822Z,97.70
2019-05-10T21:43:10.295Z,97.70
2019-05-10T21:45:39.767Z,97.80
2019-05-10T21:48:09.223Z,97.80
2019-05-10T21:50:38.700Z,97.80
2019-05-10T21:53:08.219Z,97.90
2019-05-10T21:55:37.668Z,98.00
2019-05-10T21:58:07.149Z,98.10
2019-05-10T22:00:38.293Z,98.20
2019-05-10T22:03:07.857Z,98.20
2019-05-10T22:05:37.315Z,98.20
2019-05-10T22:08:06.806Z,98.30
2019-05-10T22:10:36.305Z,98.30
2019-05-10T22:13:06.368Z,98.30
2019-05-10T22:15:35.860Z,98.40
2019-05-10T22:18:05.575Z,98.40
2019-05-10T22:20:35.174Z,98.40
2019-05-10T22:23:04.766Z,98.50
2019-05-10T22:25:34.288Z,98.50
2019-05-10T22:28:03.797Z,98.50
2019-05-10T22:30:33.429Z,98.80
2019-05-10T22:33:02.912Z,98.70
2019-05-10T22:35:32.642Z,98.70
2019-05-10T22:38:02.143Z,98.70
2019-05-10T22:40:31.730Z,98.70
2019-05-10T22:43:01.292Z,98.80
2019-05-10T22:45:30.798Z,98.90
2019-05-10T22:48:00.287Z,98.90
2019-05-10T22:50:29.770Z,98.90
2019-05-10T22:52:59.464Z,98.90
2019-05-10T22:55:28.925Z,98.90
2019-05-10T22:57:58.445Z,98.90
2019-05-10T23:00:28.270Z,99.00
2019-05-10T23:02:57.746Z,99.00
2019-05-10T23:05:27.209Z,99.00
2019-05-10T23:07:56.776Z,99.10
2019-05-10T23:10:26.294Z,99.10
2019-05-10T23:12:55.831Z,99.10
2019-05-10T23:15:26.946Z,99.10
2019-05-10T23:17:56.386Z,99.10
2019-05-10T23:20:25.907Z,99.10
2019-05-10T23:22:55.459Z,99.10
2019-05-10T23:25:24.948Z,99.10
2019-05-10T23:27:54.466Z,99.10
2019-05-10T23:30:23.947Z,99.10
2019-05-10T23:32:53.416Z,99.10
2019-05-10T23:35:22.933Z,99.10
2019-05-10T23:37:52.375Z,99.10
2019-05-10T23:40:21.926Z,99.10
2019-05-10T23:42:51.405Z,99.10
2019-05-10T23:45:20.875Z,99.00
2019-05-10T23:47:50.477Z,99.00
2019-05-10T23:50:19.946Z,99.00
2019-05-10T23:52:49.450Z,99.00
2019-05-10T23:55:19.106Z,98.90
2019-05-10T23:57:48.670Z,98.90
